Terminal Aerodrome Forecast
Issued by NWS Burlington, VT

Current Version | Previous Version | Text Only | Print | Product List | Glossary On
Versions: 1 2 3 4 5 6 7 8 9 10 11 12 13 14
000
FTUS41 KBTV 022329
TAFBTV
TAF
KBTV 022329Z 0300/0324 18006KT P6SM FEW200
     FM030700 18010KT P6SM BKN150
     FM031100 18012G20KT P6SM FEW150
     FM031800 20014G25KT P6SM VCSH SCT040 BKN110
     FM032000 20012G23KT 6SM -SHRA BKN040 BKN100=

USA.gov is the U.S. government's official web portal to all federal, state and local government web resources and services.